Time;durP1;ratioP1;P1;durP2;ratioP2;P2;SDS_P1;SDS_P2;PMS_P1;PMS_P2;Temp;Humidity;BMP_temperature;BMP_pressure;BME280_temperature;BME280_humidity;BME280_pressure;Samples;Min_cycle;Max_cycle;Signal;HPM_P1;HPM_P2
2022/05/18 00:02:06;;;;;;;2.60;1.53;;;;;;;;;;4437108;28;20047;-68
2022/05/18 00:04:16;;;;;;;4.03;1.70;;;;;;;;;;4439014;28;20040;-68
2022/05/18 00:06:27;;;;;;;3.97;1.57;;;;;;;;;;4439887;28;20492;-68
2022/05/18 00:08:37;;;;;;;3.43;1.60;;;;;;;;;;4424247;28;20367;-67
2022/05/18 00:10:49;;;;;;;2.43;1.57;;;;;;;;;;4438432;28;20056;-68
2022/05/18 00:12:59;;;;;;;;;;;;;;;;;;4438041;28;20039;-68
2022/05/18 00:15:10;;;;;;;2.13;1.70;;;;;;;;;;4420690;28;19986;-68
2022/05/18 00:17:21;;;;;;;2.50;1.60;;;;;;;;;;4420615;28;20039;-68
2022/05/18 00:19:32;;;;;;;2.33;1.63;;;;;;;;;;4438479;28;20031;-68
2022/05/18 00:21:42;;;;;;;2.05;1.60;;;;;;;;;;4436552;28;20027;-68
2022/05/18 00:23:53;;;;;;;3.17;1.50;;;;;;;;;;4438581;28;20504;-68
2022/05/18 00:26:05;;;;;;;2.83;1.63;;;;;;;;;;4438199;28;20051;-68
2022/05/18 00:28:15;;;;;;;4.47;1.92;;;;;;;;;;4440470;28;20047;-68
2022/05/18 00:30:27;;;;;;;4.87;1.80;;;;;;;;;;4424064;28;20040;-68
2022/05/18 00:32:38;;;;;;;2.83;1.75;;;;;;;;;;4439553;28;20039;-68
2022/05/18 00:34:48;;;;;;;2.60;1.70;;;;;;;;;;4423730;28;20028;-68
2022/05/18 00:36:59;;;;;;;3.73;1.53;;;;;;;;;;4439821;28;20035;-68
2022/05/18 00:39:09;;;;;;;3.13;1.47;;;;;;;;;;4440827;28;20273;-68
2022/05/18 00:41:22;;;;;;;2.10;1.50;;;;;;;;;;4439987;28;20507;-68
2022/05/18 00:43:32;;;;;;;2.17;1.48;;;;;;;;;;4440931;28;20510;-68
2022/05/18 00:45:43;;;;;;;2.80;1.40;;;;;;;;;;4440935;28;20047;-68
2022/05/18 00:47:54;;;;;;;2.70;1.80;;;;;;;;;;4425045;28;20081;-68
2022/05/18 00:50:09;;;;;;;2.78;1.63;;;;;;;;;;4425697;28;20095;-68
2022/05/18 00:52:23;;;;;;;2.65;1.65;;;;;;;;;;4406540;28;20040;-70
2022/05/18 00:54:34;;;;;;;2.50;1.77;;;;;;;;;;4440330;28;20535;-68
2022/05/18 00:56:56;;;;;;;2.15;1.50;;;;;;;;;;4441018;28;20046;-68
2022/05/18 00:59:11;;;;;;;3.35;1.70;;;;;;;;;;4432490;28;21415;-68
2022/05/18 01:01:22;;;;;;;1.83;1.42;;;;;;;;;;4431998;28;20695;-68
2022/05/18 01:03:40;;;;;;;2.63;1.40;;;;;;;;;;4422697;28;20139;-68
2022/05/18 01:06:22;;;;;;;3.03;1.70;;;;;;;;;;4440642;28;20067;-68
2022/05/18 01:08:38;;;;;;;2.65;1.70;;;;;;;;;;4439711;28;20637;-68
2022/05/18 01:10:48;;;;;;;2.65;1.75;;;;;;;;;;4427219;28;20129;-68
2022/05/18 01:13:02;;;;;;;2.03;1.70;;;;;;;;;;4441701;28;20089;-68
2022/05/18 01:15:18;;;;;;;3.92;1.70;;;;;;;;;;4439906;28;20036;-68
2022/05/18 01:17:32;;;;;;;1.77;1.42;;;;;;;;;;4423049;28;20502;-68
2022/05/18 01:19:47;;;;;;;3.15;1.52;;;;;;;;;;4422226;28;20083;-68
2022/05/18 01:22:10;;;;;;;3.60;1.75;;;;;;;;;;4439587;28;20072;-68
2022/05/18 01:24:30;;;;;;;2.47;1.52;;;;;;;;;;4440954;28;20681;-69
2022/05/18 01:26:44;;;;;;;2.72;1.40;;;;;;;;;;4426146;28;20433;-68
2022/05/18 01:28:57;;;;;;;4.57;1.70;;;;;;;;;;4439520;28;20055;-68
2022/05/18 01:31:08;;;;;;;2.17;1.70;;;;;;;;;;4422208;28;20048;-68
2022/05/18 01:33:21;;;;;;;3.38;1.45;;;;;;;;;;4439211;28;20190;-68
2022/05/18 01:35:33;;;;;;;2.55;1.70;;;;;;;;;;4425383;28;20043;-68
2022/05/18 01:37:43;;;;;;;3.17;1.58;;;;;;;;;;4439121;28;20507;-68
2022/05/18 01:39:58;;;;;;;4.40;1.83;;;;;;;;;;4440227;28;20043;-68
2022/05/18 01:42:18;;;;;;;2.25;1.42;;;;;;;;;;4439985;28;21091;-68
2022/05/18 01:44:29;;;;;;;2.28;1.70;;;;;;;;;;4438142;28;20040;-68
2022/05/18 01:46:39;;;;;;;3.27;1.70;;;;;;;;;;4439139;28;44280;-67
2022/05/18 01:48:52;;;;;;;2.93;1.40;;;;;;;;;;4439124;28;25059;-68
2022/05/18 01:51:04;;;;;;;2.17;1.55;;;;;;;;;;4427444;28;20036;-68
2022/05/18 01:53:14;;;;;;;2.58;1.70;;;;;;;;;;4439143;28;20034;-68
2022/05/18 01:55:25;;;;;;;2.60;1.50;;;;;;;;;;4438556;28;24327;-68
2022/05/18 01:57:36;;;;;;;3.03;1.70;;;;;;;;;;4437546;28;20167;-68
2022/05/18 01:59:46;;;;;;;2.83;1.50;;;;;;;;;;4431695;28;20063;-68
2022/05/18 02:01:58;;;;;;;2.17;1.47;;;;;;;;;;4442101;28;20634;-68
2022/05/18 02:04:08;;;;;;;3.08;1.60;;;;;;;;;;4422388;28;20160;-68
2022/05/18 02:06:22;;;;;;;2.37;1.53;;;;;;;;;;4438210;28;20071;-70
2022/05/18 02:08:33;;;;;;;3.67;1.73;;;;;;;;;;4438666;28;20523;-68
2022/05/18 02:10:44;;;;;;;2.63;1.43;;;;;;;;;;4422870;28;20492;-68
2022/05/18 02:12:54;;;;;;;2.95;1.65;;;;;;;;;;4439079;28;20040;-68
2022/05/18 02:15:06;;;;;;;3.90;1.77;;;;;;;;;;4438068;28;20039;-68
2022/05/18 02:17:16;;;;;;;1.88;1.33;;;;;;;;;;4424695;28;20091;-68
2022/05/18 02:19:27;;;;;;;2.67;1.73;;;;;;;;;;4439793;28;20164;-68
2022/05/18 02:21:37;;;;;;;3.77;1.80;;;;;;;;;;4440275;28;20039;-68
2022/05/18 02:23:47;;;;;;;3.60;1.80;;;;;;;;;;4439168;28;22239;-68
2022/05/18 02:26:01;;;;;;;2.00;1.70;;;;;;;;;;4439960;28;20506;-69
2022/05/18 02:28:12;;;;;;;2.88;1.73;;;;;;;;;;4439316;28;20870;-68
2022/05/18 02:30:22;;;;;;;2.53;1.90;;;;;;;;;;4440033;28;20047;-68
2022/05/18 02:32:33;;;;;;;3.00;1.83;;;;;;;;;;4437776;28;20420;-68
2022/05/18 02:34:43;;;;;;;3.33;1.97;;;;;;;;;;4439688;28;20043;-68
2022/05/18 02:36:54;;;;;;;2.37;1.60;;;;;;;;;;4440008;28;20035;-70
2022/05/18 02:39:04;;;;;;;3.37;1.57;;;;;;;;;;4439841;28;20526;-68
2022/05/18 02:41:15;;;;;;;2.43;1.43;;;;;;;;;;4441077;28;20042;-68
2022/05/18 02:43:26;;;;;;;3.43;1.70;;;;;;;;;;4438844;28;20098;-68
2022/05/18 02:45:37;;;;;;;2.85;1.90;;;;;;;;;;4440079;28;20776;-68
2022/05/18 02:47:47;;;;;;;2.60;1.50;;;;;;;;;;4438592;28;20076;-68
2022/05/18 02:49:57;;;;;;;2.07;1.60;;;;;;;;;;4437770;28;20043;-68
2022/05/18 02:52:08;;;;;;;3.77;1.50;;;;;;;;;;4438985;28;20433;-68
2022/05/18 02:56:48;;;;;;;3.65;1.80;;;;;;;;;;4439165;28;21261;-68
2022/05/18 02:58:58;;;;;;;1.73;1.50;;;;;;;;;;4438229;28;20031;-68
2022/05/18 03:01:12;;;;;;;3.60;1.70;;;;;;;;;;4439060;28;20060;-68
2022/05/18 03:03:22;;;;;;;2.15;1.50;;;;;;;;;;4439329;28;20031;-68
2022/05/18 03:05:33;;;;;;;4.13;1.87;;;;;;;;;;4429723;28;20396;-68
2022/05/18 03:07:43;;;;;;;2.90;1.80;;;;;;;;;;4439601;28;20631;-69
2022/05/18 03:09:54;;;;;;;2.07;1.47;;;;;;;;;;4436499;28;20127;-68
2022/05/18 03:12:05;;;;;;;4.07;1.80;;;;;;;;;;4437678;28;20035;-68
2022/05/18 03:14:16;;;;;;;3.72;1.80;;;;;;;;;;4437632;28;20051;-69
2022/05/18 03:16:27;;;;;;;2.55;1.45;;;;;;;;;;4421497;28;20034;-68
2022/05/18 03:18:38;;;;;;;3.00;1.45;;;;;;;;;;4421877;28;20843;-69
2022/05/18 03:23:36;;;;;;;2.90;1.42;;;;;;;;;;4439247;28;20050;-68
2022/05/18 03:25:47;;;;;;;3.33;1.52;;;;;;;;;;4421253;28;20154;-69
2022/05/18 03:27:57;;;;;;;2.50;1.40;;;;;;;;;;4437924;28;20040;-68
2022/05/18 03:30:09;;;;;;;1.83;1.40;;;;;;;;;;4421086;28;20531;-68
2022/05/18 03:32:22;;;;;;;3.08;1.70;;;;;;;;;;4423838;28;20162;-68
2022/05/18 03:34:35;;;;;;;2.35;1.50;;;;;;;;;;4424303;28;20132;-68
2022/05/18 03:36:46;;;;;;;1.70;1.20;;;;;;;;;;4435991;28;20038;-68
2022/05/18 03:38:56;;;;;;;1.50;1.13;;;;;;;;;;4438695;28;20050;-68
2022/05/18 03:41:08;;;;;;;1.93;1.43;;;;;;;;;;4438304;28;20416;-68
2022/05/18 03:43:19;;;;;;;2.83;1.45;;;;;;;;;;4425651;28;20714;-68
2022/05/18 03:45:30;;;;;;;1.40;1.30;;;;;;;;;;4420673;28;20043;-68
2022/05/18 03:47:42;;;;;;;2.53;1.55;;;;;;;;;;4420252;28;20099;-68
2022/05/18 03:49:52;;;;;;;2.22;1.27;;;;;;;;;;4437543;28;20039;-69
2022/05/18 03:52:03;;;;;;;3.40;1.67;;;;;;;;;;4437145;28;20028;-68
2022/05/18 03:54:14;;;;;;;2.17;1.52;;;;;;;;;;4428437;28;20115;-68
2022/05/18 03:56:26;;;;;;;1.80;1.50;;;;;;;;;;4438816;28;20550;-68
2022/05/18 03:58:36;;;;;;;;;;;;;;;;;;4438521;28;20103;-68
2022/05/18 04:00:48;;;;;;;2.85;1.60;;;;;;;;;;4421810;28;19919;-68
2022/05/18 04:02:58;;;;;;;2.55;1.50;;;;;;;;;;4432810;28;20601;-68
2022/05/18 04:05:10;;;;;;;1.50;1.30;;;;;;;;;;4422784;28;27491;-68
2022/05/18 04:07:20;;;;;;;1.85;1.40;;;;;;;;;;4440105;28;20031;-68
2022/05/18 04:09:31;;;;;;;1.53;1.27;;;;;;;;;;4440234;28;20567;-68
2022/05/18 04:11:41;;;;;;;2.80;1.60;;;;;;;;;;4440618;28;20062;-68
2022/05/18 04:13:52;;;;;;;2.07;1.47;;;;;;;;;;4440098;28;28513;-68
2022/05/18 04:16:03;;;;;;;2.43;1.33;;;;;;;;;;4431751;28;20145;-68
2022/05/18 04:18:13;;;;;;;3.17;1.50;;;;;;;;;;4439745;28;20291;-68
2022/05/18 04:20:24;;;;;;;2.60;1.40;;;;;;;;;;4441022;28;20046;-68
2022/05/18 04:22:35;;;;;;;3.50;1.50;;;;;;;;;;4425606;28;20126;-68
2022/05/18 04:24:46;;;;;;;4.82;1.88;;;;;;;;;;4439841;28;20039;-68
2022/05/18 04:26:57;;;;;;;3.47;1.40;;;;;;;;;;4440354;28;20036;-69
2022/05/18 04:29:07;;;;;;;1.58;1.35;;;;;;;;;;4440606;28;20067;-68
2022/05/18 04:31:18;;;;;;;2.37;1.47;;;;;;;;;;4439328;28;20527;-68
2022/05/18 04:33:28;;;;;;;2.73;1.50;;;;;;;;;;4438816;28;20036;-68
2022/05/18 04:35:40;;;;;;;2.57;1.60;;;;;;;;;;4439058;28;20326;-67
2022/05/18 04:37:50;;;;;;;3.15;1.60;;;;;;;;;;4440430;28;21216;-68
2022/05/18 04:40:01;;;;;;;3.33;1.57;;;;;;;;;;4439093;28;20063;-68
2022/05/18 04:42:11;;;;;;;2.80;1.70;;;;;;;;;;4440802;28;20036;-68
2022/05/18 04:44:22;;;;;;;3.40;1.63;;;;;;;;;;4441265;28;20044;-67
2022/05/18 04:46:32;;;;;;;2.00;1.43;;;;;;;;;;4440186;28;40524;-68
2022/05/18 04:48:42;;;;;;;2.80;1.60;;;;;;;;;;4439835;28;26306;-68
2022/05/18 04:50:53;;;;;;;1.73;1.40;;;;;;;;;;4406867;28;20048;-68
2022/05/18 04:53:04;;;;;;;4.35;1.55;;;;;;;;;;4438594;28;20035;-68
2022/05/18 04:55:15;;;;;;;2.57;1.63;;;;;;;;;;4441158;28;20402;-68
2022/05/18 04:57:25;;;;;;;2.92;1.73;;;;;;;;;;4440184;28;20475;-68
2022/05/18 04:59:36;;;;;;;3.63;1.67;;;;;;;;;;4440389;28;20039;-68
2022/05/18 05:01:46;;;;;;;2.77;1.60;;;;;;;;;;4438200;28;20535;-68
2022/05/18 05:03:57;;;;;;;2.83;1.73;;;;;;;;;;4422370;28;20273;-68
2022/05/18 05:06:07;;;;;;;4.97;1.83;;;;;;;;;;4439987;28;20507;-68
2022/05/18 05:08:18;;;;;;;2.20;1.67;;;;;;;;;;4439302;28;20049;-69
2022/05/18 05:10:29;;;;;;;2.95;1.55;;;;;;;;;;4442289;28;20102;-68
2022/05/18 05:12:39;;;;;;;3.20;1.60;;;;;;;;;;4440343;28;20118;-68
2022/05/18 05:14:50;;;;;;;3.17;1.60;;;;;;;;;;4439757;28;20047;-69
2022/05/18 05:17:01;;;;;;;3.13;1.50;;;;;;;;;;4438984;28;20146;-68
2022/05/18 05:19:13;;;;;;;2.20;1.40;;;;;;;;;;4440485;28;20044;-69
2022/05/18 05:21:23;;;;;;;2.47;1.50;;;;;;;;;;4423945;28;20028;-68
2022/05/18 05:23:34;;;;;;;2.50;1.53;;;;;;;;;;4439561;28;24328;-68
2022/05/18 05:25:44;;;;;;;3.70;1.50;;;;;;;;;;4439047;28;20124;-70
2022/05/18 05:27:55;;;;;;;1.93;1.30;;;;;;;;;;4439053;28;21920;-68
2022/05/18 05:30:07;;;;;;;2.10;1.33;;;;;;;;;;4439801;28;20136;-69
2022/05/18 05:32:18;;;;;;;4.50;1.60;;;;;;;;;;4429516;28;20139;-68
2022/05/18 05:34:28;;;;;;;3.07;1.43;;;;;;;;;;4438793;28;20404;-68
2022/05/18 05:36:39;;;;;;;3.37;1.50;;;;;;;;;;4438466;28;20044;-68
2022/05/18 05:38:49;;;;;;;1.53;1.43;;;;;;;;;;4423652;28;39965;-68
2022/05/18 05:41:00;;;;;;;1.70;1.33;;;;;;;;;;4439416;28;20032;-68
2022/05/18 05:43:11;;;;;;;3.43;1.50;;;;;;;;;;4438678;28;20533;-68
2022/05/18 05:45:21;;;;;;;2.25;1.52;;;;;;;;;;4430302;28;20152;-70
2022/05/18 05:47:32;;;;;;;3.23;1.40;;;;;;;;;;4422174;28;20040;-69
2022/05/18 05:49:42;;;;;;;3.17;1.50;;;;;;;;;;4438914;28;25377;-69
2022/05/18 05:51:53;;;;;;;3.13;1.63;;;;;;;;;;4421951;28;20042;-69
2022/05/18 05:54:04;;;;;;;3.13;1.57;;;;;;;;;;4401483;28;20165;-69
2022/05/18 05:56:15;;;;;;;1.87;1.50;;;;;;;;;;4437970;28;20039;-69
2022/05/18 05:58:26;;;;;;;2.20;1.58;;;;;;;;;;4439379;28;20610;-65
2022/05/18 06:00:36;;;;;;;3.72;1.17;;;;;;;;;;4440427;28;20042;-65
2022/05/18 06:02:47;;;;;;;1.80;1.37;;;;;;;;;;4438753;28;22259;-65
2022/05/18 06:04:57;;;;;;;1.20;1.00;;;;;;;;;;4437621;28;20094;-64
2022/05/18 06:07:08;;;;;;;1.77;1.00;;;;;;;;;;4436967;28;20046;-65
2022/05/18 06:09:18;;;;;;;2.70;1.53;;;;;;;;;;4439669;28;20047;-65
2022/05/18 06:11:29;;;;;;;2.27;1.43;;;;;;;;;;4437937;28;20411;-65
2022/05/18 06:13:40;;;;;;;2.77;1.60;;;;;;;;;;4437519;28;20060;-64
2022/05/18 06:15:50;;;;;;;3.10;1.20;;;;;;;;;;4438737;28;20036;-65
2022/05/18 06:18:00;;;;;;;1.67;1.23;;;;;;;;;;4422713;28;20135;-66
2022/05/18 06:20:11;;;;;;;1.90;1.20;;;;;;;;;;4423128;28;20643;-66
2022/05/18 06:22:22;;;;;;;2.37;1.30;;;;;;;;;;4437348;28;20507;-65
2022/05/18 06:24:32;;;;;;;2.33;1.40;;;;;;;;;;4439810;28;20043;-65
2022/05/18 06:26:43;;;;;;;3.73;1.57;;;;;;;;;;4431368;28;20473;-66
2022/05/18 06:28:53;;;;;;;3.10;1.50;;;;;;;;;;4436811;28;20071;-65
2022/05/18 06:31:04;;;;;;;1.77;1.37;;;;;;;;;;4437865;28;20417;-66
2022/05/18 06:33:15;;;;;;;2.78;1.35;;;;;;;;;;4425273;28;20708;-66
2022/05/18 06:35:25;;;;;;;1.97;1.30;;;;;;;;;;4439227;28;20050;-65
2022/05/18 06:37:36;;;;;;;1.97;1.40;;;;;;;;;;4437497;28;33133;-65
2022/05/18 06:39:46;;;;;;;2.13;1.33;;;;;;;;;;4438518;28;20063;-65
2022/05/18 06:41:57;;;;;;;2.00;1.33;;;;;;;;;;4439448;28;20036;-65
2022/05/18 06:44:08;;;;;;;3.08;1.58;;;;;;;;;;4408077;28;20040;-65
2022/05/18 06:46:19;;;;;;;2.47;1.30;;;;;;;;;;4420011;28;22672;-66
2022/05/18 06:48:30;;;;;;;2.50;1.45;;;;;;;;;;4439270;28;20055;-65
2022/05/18 06:50:40;;;;;;;3.03;1.70;;;;;;;;;;4438091;28;20631;-65
2022/05/18 06:52:51;;;;;;;2.10;1.30;;;;;;;;;;4438551;28;20062;-65
2022/05/18 06:55:02;;;;;;;2.03;1.20;;;;;;;;;;4437923;28;20059;-65
2022/05/18 06:57:13;;;;;;;2.17;1.45;;;;;;;;;;4438868;28;20051;-65
2022/05/18 06:59:23;;;;;;;3.90;1.40;;;;;;;;;;4437810;28;20039;-65
2022/05/18 07:01:34;;;;;;;2.27;1.40;;;;;;;;;;4438571;28;20073;-67
2022/05/18 07:03:45;;;;;;;3.50;1.65;;;;;;;;;;4439671;28;20120;-65
2022/05/18 07:05:56;;;;;;;2.42;1.38;;;;;;;;;;4437954;28;20095;-65
2022/05/18 07:08:07;;;;;;;2.67;1.40;;;;;;;;;;4437884;28;20038;-65
2022/05/18 07:10:17;;;;;;;2.75;1.40;;;;;;;;;;4411256;28;20036;-65
2022/05/18 07:12:27;;;;;;;2.97;1.57;;;;;;;;;;4438604;28;22432;-70
2022/05/18 07:14:38;;;;;;;1.80;1.30;;;;;;;;;;4438317;28;20582;-70
2022/05/18 07:16:49;;;;;;;2.23;1.50;;;;;;;;;;4439304;28;20039;-69
2022/05/18 07:18:59;;;;;;;2.63;1.50;;;;;;;;;;4408868;28;20493;-70
2022/05/18 07:21:10;;;;;;;2.77;1.40;;;;;;;;;;4438879;28;20024;-69
2022/05/18 07:23:21;;;;;;;2.50;1.33;;;;;;;;;;4437142;28;20743;-69
2022/05/18 07:25:31;;;;;;;3.50;1.60;;;;;;;;;;4439736;28;20319;-69
2022/05/18 07:27:42;;;;;;;2.63;1.30;;;;;;;;;;4437375;28;20039;-69
2022/05/18 07:29:52;;;;;;;4.07;1.70;;;;;;;;;;4438837;28;24866;-69
2022/05/18 07:32:09;;;;;;;2.07;1.53;;;;;;;;;;4437694;28;20516;-69
2022/05/18 07:34:21;;;;;;;4.10;1.50;;;;;;;;;;4437391;28;20590;-69
2022/05/18 07:36:31;;;;;;;2.70;1.50;;;;;;;;;;4422864;28;20835;-70
2022/05/18 07:38:42;;;;;;;2.17;1.20;;;;;;;;;;4441041;28;20038;-69
2022/05/18 07:40:53;;;;;;;5.17;1.60;;;;;;;;;;4440699;28;20035;-69
2022/05/18 07:43:03;;;;;;;2.00;1.43;;;;;;;;;;4441123;28;20274;-69
2022/05/18 07:45:14;;;;;;;2.20;1.43;;;;;;;;;;4440888;28;20070;-70
2022/05/18 07:47:30;;;;;;;2.77;1.20;;;;;;;;;;4441632;28;20042;-69
2022/05/18 07:49:41;;;;;;;1.95;1.40;;;;;;;;;;4441684;28;20051;-69
2022/05/18 07:51:52;;;;;;;1.90;1.27;;;;;;;;;;4440348;28;20039;-69
2022/05/18 07:54:02;;;;;;;3.00;1.53;;;;;;;;;;4439303;28;20054;-69
2022/05/18 07:56:13;;;;;;;2.80;1.60;;;;;;;;;;4440880;28;20038;-70
2022/05/18 07:58:24;;;;;;;1.97;1.30;;;;;;;;;;4440497;28;20725;-70
2022/05/18 08:00:34;;;;;;;3.57;1.43;;;;;;;;;;4440627;28;20280;-69
2022/05/18 08:02:44;;;;;;;3.43;1.20;;;;;;;;;;4440559;28;20661;-69
2022/05/18 08:04:55;;;;;;;1.67;1.20;;;;;;;;;;4441083;28;20036;-70
2022/05/18 08:07:05;;;;;;;2.20;1.33;;;;;;;;;;4423484;28;20039;-70
2022/05/18 08:09:16;;;;;;;3.37;1.50;;;;;;;;;;4423544;28;20508;-70
2022/05/18 08:16:30;;;;;;;2.65;1.42;;;;;;;;;;4439563;28;20044;-70
2022/05/18 08:18:41;;;;;;;1.85;1.20;;;;;;;;;;4422761;28;20038;-70
2022/05/18 08:20:51;;;;;;;2.63;1.30;;;;;;;;;;4441652;28;20042;-69
2022/05/18 08:23:01;;;;;;;3.93;1.50;;;;;;;;;;4427766;28;20039;-69
2022/05/18 08:25:13;;;;;;;2.73;1.20;;;;;;;;;;4440081;28;20556;-70
2022/05/18 08:27:24;;;;;;;2.78;1.50;;;;;;;;;;4441999;28;20726;-69
2022/05/18 08:29:35;;;;;;;2.03;1.30;;;;;;;;;;4440466;28;30625;-70
2022/05/18 08:31:46;;;;;;;1.42;1.20;;;;;;;;;;4406604;28;20074;-70
2022/05/18 08:33:56;;;;;;;2.53;1.13;;;;;;;;;;4440327;28;20122;-69
2022/05/18 08:36:07;;;;;;;2.03;1.00;;;;;;;;;;4439541;28;20084;-70
2022/05/18 08:38:19;;;;;;;3.22;1.20;;;;;;;;;;4439066;28;20249;-70
2022/05/18 08:40:29;;;;;;;1.77;1.20;;;;;;;;;;4441143;28;20031;-69
2022/05/18 08:42:39;;;;;;;1.10;1.00;;;;;;;;;;4442268;28;20043;-71
2022/05/18 08:44:50;;;;;;;3.57;1.20;;;;;;;;;;4439124;28;20138;-70
2022/05/18 08:47:27;;;;;;;2.13;1.10;;;;;;;;;;4441072;28;20036;-69
2022/05/18 08:50:00;;;;;;;2.40;1.20;;;;;;;;;;4430078;28;20060;-70
2022/05/18 08:52:28;;;;;;;2.35;1.20;;;;;;;;;;4422737;28;20142;-70
2022/05/18 08:54:49;;;;;;;2.47;1.10;;;;;;;;;;4431428;28;20048;-70
2022/05/18 08:57:00;;;;;;;2.60;1.20;;;;;;;;;;4423657;28;20144;-70
2022/05/18 08:59:17;;;;;;;;;;;;;;;;;;4439542;28;20560;-70
2022/05/18 09:01:41;;;;;;;1.92;1.30;;;;;;;;;;4422707;28;19945;-70
2022/05/18 09:03:59;;;;;;;2.10;1.20;;;;;;;;;;4425314;28;20032;-69
2022/05/18 09:06:21;;;;;;;1.65;1.20;;;;;;;;;;4426962;28;20028;-70
2022/05/18 09:08:34;;;;;;;1.33;1.05;;;;;;;;;;4422741;28;20048;-70
2022/05/18 09:11:01;;;;;;;1.20;0.90;;;;;;;;;;4439568;28;20077;-70
2022/05/18 09:13:13;;;;;;;1.67;1.02;;;;;;;;;;4423398;28;20130;-69
2022/05/18 09:16:09;;;;;;;1.77;0.90;;;;;;;;;;4432440;28;20027;-70
2022/05/18 09:18:28;;;;;;;2.92;1.20;;;;;;;;;;4435396;28;20628;-70
2022/05/18 09:20:52;;;;;;;2.35;1.10;;;;;;;;;;4423032;28;20658;-70
2022/05/18 09:23:12;;;;;;;1.95;1.17;;;;;;;;;;4425101;28;20040;-69
2022/05/18 09:25:26;;;;;;;1.50;1.00;;;;;;;;;;4421293;28;20044;-70
2022/05/18 09:27:58;;;;;;;2.30;1.10;;;;;;;;;;4439961;28;20040;-70
2022/05/18 09:30:20;;;;;;;1.38;1.10;;;;;;;;;;4438567;28;20047;-70
2022/05/18 09:32:45;;;;;;;2.30;1.20;;;;;;;;;;4440023;28;20075;-71
2022/05/18 09:34:59;;;;;;;1.85;1.13;;;;;;;;;;4440256;28;20039;-70
2022/05/18 09:37:36;;;;;;;1.77;1.30;;;;;;;;;;4439116;28;20561;-70
2022/05/18 09:39:57;;;;;;;1.30;1.00;;;;;;;;;;4415718;28;20092;-70
2022/05/18 09:42:14;;;;;;;2.55;1.30;;;;;;;;;;4427412;28;20123;-70
2022/05/18 09:44:43;;;;;;;1.20;1.10;;;;;;;;;;4438755;28;20038;-70
2022/05/18 09:46:54;;;;;;;2.08;1.20;;;;;;;;;;4425793;28;20047;-70
2022/05/18 09:49:04;;;;;;;;;;;;;;;;;;4424790;28;20044;-70
2022/05/18 09:51:15;;;;;;;2.03;1.10;;;;;;;;;;4439397;28;19918;-70
2022/05/18 09:53:26;;;;;;;2.00;1.10;;;;;;;;;;4421481;28;20624;-70
2022/05/18 09:55:37;;;;;;;1.33;1.00;;;;;;;;;;4436703;28;20041;-70
2022/05/18 09:57:53;;;;;;;2.00;1.35;;;;;;;;;;4438521;28;20035;-70
2022/05/18 10:00:16;;;;;;;2.22;1.20;;;;;;;;;;4438763;28;20039;-69
2022/05/18 10:07:27;;;;;;;2.10;1.17;;;;;;;;;;4438575;28;20035;-70
2022/05/18 10:09:49;;;;;;;1.95;1.33;;;;;;;;;;4429527;28;20154;-70
2022/05/18 10:12:11;;;;;;;1.88;1.20;;;;;;;;;;4422569;28;20039;-70
2022/05/18 10:14:33;;;;;;;1.92;1.08;;;;;;;;;;4439589;28;20031;-70
2022/05/18 10:16:59;;;;;;;3.10;1.17;;;;;;;;;;4430773;28;20143;-70
2022/05/18 10:19:16;;;;;;;2.30;1.15;;;;;;;;;;4422902;28;20040;-70
2022/05/18 10:22:04;;;;;;;2.55;1.33;;;;;;;;;;4430208;28;20769;-70
2022/05/18 10:24:42;;;;;;;1.05;0.93;;;;;;;;;;4386406;29;20140;-71
2022/05/18 10:27:08;;;;;;;1.20;1.08;;;;;;;;;;4414513;28;20051;-71
2022/05/18 10:29:18;;;;;;;1.55;0.98;;;;;;;;;;4438747;28;20039;-70
2022/05/18 10:31:33;;;;;;;2.10;1.20;;;;;;;;;;4440107;28;20046;-70
2022/05/18 10:33:43;;;;;;;2.13;1.30;;;;;;;;;;4438488;28;20086;-70
2022/05/18 10:35:54;;;;;;;2.50;1.23;;;;;;;;;;4439180;28;20045;-70
2022/05/18 10:38:25;;;;;;;2.25;1.42;;;;;;;;;;4438620;28;20051;-70
2022/05/18 10:40:35;;;;;;;1.70;1.00;;;;;;;;;;4421764;28;20040;-71
2022/05/18 10:42:55;;;;;;;1.83;1.40;;;;;;;;;;4424851;28;20027;-71
2022/05/18 10:45:25;;;;;;;1.83;1.17;;;;;;;;;;4438181;28;20050;-70
2022/05/18 10:47:36;;;;;;;1.50;1.20;;;;;;;;;;4439073;28;20039;-70
2022/05/18 10:49:48;;;;;;;3.30;1.20;;;;;;;;;;4429725;28;20048;-71
2022/05/18 10:52:12;;;;;;;;;;;;;;;;;;4421075;28;20036;-70
2022/05/18 10:54:26;;;;;;;1.77;1.20;;;;;;;;;;4439743;28;19918;-71
2022/05/18 10:56:37;;;;;;;1.88;1.10;;;;;;;;;;4424063;28;20044;-70
2022/05/18 10:59:16;;;;;;;1.35;1.20;;;;;;;;;;4440003;28;20064;-71
2022/05/18 11:01:38;;;;;;;2.10;1.27;;;;;;;;;;4439709;28;20040;-71
2022/05/18 11:03:56;;;;;;;2.75;1.40;;;;;;;;;;4429053;28;20051;-70
2022/05/18 11:06:10;;;;;;;2.85;1.35;;;;;;;;;;4438522;28;20031;-71
2022/05/18 11:08:22;;;;;;;1.58;1.30;;;;;;;;;;4437615;28;20036;-71
2022/05/18 11:11:10;;;;;;;1.33;1.23;;;;;;;;;;4421567;28;20048;-71
2022/05/18 11:13:46;;;;;;;1.50;1.23;;;;;;;;;;4439242;28;20563;-70
2022/05/18 11:16:08;;;;;;;2.20;1.30;;;;;;;;;;4438059;28;20653;-70
2022/05/18 11:18:24;;;;;;;1.27;1.02;;;;;;;;;;4422970;28;20044;-71
2022/05/18 11:20:50;;;;;;;1.70;1.20;;;;;;;;;;4436666;28;20169;-71
2022/05/18 11:23:04;;;;;;;1.58;1.15;;;;;;;;;;4424286;28;20627;-71
2022/05/18 11:25:23;;;;;;;2.45;1.20;;;;;;;;;;4420360;28;20047;-71
2022/05/18 11:27:44;;;;;;;2.75;1.30;;;;;;;;;;4429476;28;20158;-71
2022/05/18 11:30:13;;;;;;;2.08;1.20;;;;;;;;;;4406990;28;20181;-72
2022/05/18 11:32:48;;;;;;;1.27;1.15;;;;;;;;;;4438357;28;20040;-71
2022/05/18 11:35:40;;;;;;;1.30;1.20;;;;;;;;;;4438659;28;20044;-71
2022/05/18 11:38:12;;;;;;;1.50;1.17;;;;;;;;;;4438014;28;21141;-71
2022/05/18 11:40:32;;;;;;;2.42;1.30;;;;;;;;;;4437616;28;20064;-71
2022/05/18 11:43:25;;;;;;;2.22;1.30;;;;;;;;;;4438256;28;20844;-71
2022/05/18 11:46:11;;;;;;;2.38;1.40;;;;;;;;;;4422794;28;20036;-71
2022/05/18 11:48:45;;;;;;;1.33;1.15;;;;;;;;;;4401735;28;20123;-71
2022/05/18 11:51:17;;;;;;;1.30;1.00;;;;;;;;;;4424830;28;20091;-71
2022/05/18 11:53:57;;;;;;;2.03;1.30;;;;;;;;;;4437630;28;20654;-71
2022/05/18 11:56:16;;;;;;;1.73;1.30;;;;;;;;;;4437851;28;20042;-71
2022/05/18 11:59:10;;;;;;;1.75;1.23;;;;;;;;;;4438075;28;20036;-71
2022/05/18 12:01:31;;;;;;;1.40;1.20;;;;;;;;;;4438811;28;20035;-71
2022/05/18 12:03:54;;;;;;;1.65;1.17;;;;;;;;;;4436238;28;20050;-71
2022/05/18 12:06:14;;;;;;;1.98;1.20;;;;;;;;;;4414422;28;20040;-71
2022/05/18 12:08:37;;;;;;;1.55;1.23;;;;;;;;;;4420502;28;20047;-70
2022/05/18 12:11:14;;;;;;;2.28;1.13;;;;;;;;;;4435206;28;20040;-70
2022/05/18 12:13:52;;;;;;;3.08;1.20;;;;;;;;;;4428916;28;20488;-72
2022/05/18 12:16:45;;;;;;;2.47;1.33;;;;;;;;;;4421239;28;20997;-71
2022/05/18 12:19:15;;;;;;;1.45;1.20;;;;;;;;;;4438429;28;20655;-71
2022/05/18 12:21:40;;;;;;;2.50;1.23;;;;;;;;;;4438011;28;20039;-71
2022/05/18 12:23:57;;;;;;;1.48;1.20;;;;;;;;;;4424108;28;20822;-71
2022/05/18 12:26:08;;;;;;;2.60;1.02;;;;;;;;;;4440840;28;20054;-72
2022/05/18 12:28:18;;;;;;;1.90;1.10;;;;;;;;;;4411883;28;20119;-71
2022/05/18 12:30:33;;;;;;;1.90;1.37;;;;;;;;;;4439888;28;20046;-72
2022/05/18 12:32:45;;;;;;;1.95;1.30;;;;;;;;;;4426469;28;20111;-72
2022/05/18 12:35:11;;;;;;;2.33;1.40;;;;;;;;;;4432501;28;20101;-71
2022/05/18 12:37:30;;;;;;;2.97;1.55;;;;;;;;;;4423850;28;20523;-71
2022/05/18 12:39:48;;;;;;;2.25;1.13;;;;;;;;;;4441617;28;20039;-72
2022/05/18 12:42:00;;;;;;;1.73;1.10;;;;;;;;;;4440426;28;20118;-71
2022/05/18 12:44:40;;;;;;;1.83;1.15;;;;;;;;;;4422618;28;20540;-71
2022/05/18 12:46:58;;;;;;;1.90;1.30;;;;;;;;;;4441274;28;20846;-71
2022/05/18 12:49:33;;;;;;;2.45;1.38;;;;;;;;;;4422893;28;20044;-71
2022/05/18 12:52:06;;;;;;;3.00;1.20;;;;;;;;;;4437916;28;20043;-72
2022/05/18 12:54:29;;;;;;;2.33;1.08;;;;;;;;;;4423137;28;20044;-72
2022/05/18 12:56:40;;;;;;;2.33;1.50;;;;;;;;;;4440367;28;20040;-71
2022/05/18 12:58:57;;;;;;;2.00;1.30;;;;;;;;;;4440618;28;20043;-71
2022/05/18 13:01:15;;;;;;;1.65;1.08;;;;;;;;;;4439186;28;20657;-72
2022/05/18 13:03:50;;;;;;;1.33;1.23;;;;;;;;;;4439666;28;20031;-72
2022/05/18 13:06:01;;;;;;;2.28;1.10;;;;;;;;;;4420003;28;20095;-71
2022/05/18 13:08:15;;;;;;;2.10;1.17;;;;;;;;;;4423210;28;20028;-71
2022/05/18 13:10:33;;;;;;;1.58;1.08;;;;;;;;;;4438926;28;20123;-72
2022/05/18 13:12:47;;;;;;;2.65;1.40;;;;;;;;;;4423032;28;20571;-73
2022/05/18 13:15:18;;;;;;;1.75;1.10;;;;;;;;;;4422524;28;20153;-75
2022/05/18 13:17:51;;;;;;;2.33;1.45;;;;;;;;;;4422499;28;20088;-77
2022/05/18 13:20:27;;;;;;;2.08;1.23;;;;;;;;;;4422126;28;20051;-73
2022/05/18 13:22:41;;;;;;;1.80;1.25;;;;;;;;;;4440773;28;20586;-72
2022/05/18 13:24:55;;;;;;;1.77;1.23;;;;;;;;;;4439217;28;20208;-69
2022/05/18 13:27:15;;;;;;;2.85;1.25;;;;;;;;;;4438960;28;20040;-69
2022/05/18 13:29:29;;;;;;;1.70;1.20;;;;;;;;;;4440344;28;20094;-67
2022/05/18 13:31:41;;;;;;;2.85;1.60;;;;;;;;;;4431781;28;20036;-66
2022/05/18 13:34:17;;;;;;;1.80;1.20;;;;;;;;;;4424195;28;20032;-68
2022/05/18 13:36:43;;;;;;;1.48;1.30;;;;;;;;;;4422957;28;20530;-68
2022/05/18 13:38:54;;;;;;;2.22;1.48;;;;;;;;;;4425141;28;20036;-69
2022/05/18 13:41:11;;;;;;;1.47;1.13;;;;;;;;;;4416807;28;20473;-68
2022/05/18 13:43:22;;;;;;;1.98;1.33;;;;;;;;;;4421797;28;20094;-69
2022/05/18 13:45:34;;;;;;;1.95;1.40;;;;;;;;;;4438876;28;20082;-68
2022/05/18 13:47:48;;;;;;;;;;;;;;;;;;4439359;28;20078;-68
2022/05/18 13:50:05;;;;;;;1.33;1.23;;;;;;;;;;4422137;28;20533;-68